sensor_id;sensor_type;location;lat;lon;timestamp;P1;durP1;ratioP1;P2;durP2;ratioP2
17173;SDS011;8702;48.130;-1.696;2022-12-07T00:00:51;21.23;;;16.25;;
17173;SDS011;8702;48.130;-1.696;2022-12-07T00:03:18;19.60;;;16.38;;
17173;SDS011;8702;48.130;-1.696;2022-12-07T00:05:47;19.70;;;16.63;;
17173;SDS011;8702;48.130;-1.696;2022-12-07T00:08:14;18.67;;;15.95;;
17173;SDS011;8702;48.130;-1.696;2022-12-07T00:10:41;19.33;;;16.25;;
17173;SDS011;8702;48.130;-1.696;2022-12-07T00:13:09;19.73;;;15.95;;
17173;SDS011;8702;48.130;-1.696;2022-12-07T00:15:36;19.48;;;16.10;;
17173;SDS011;8702;48.130;-1.696;2022-12-07T00:18:03;18.30;;;16.05;;
17173;SDS011;8702;48.130;-1.696;2022-12-07T00:20:30;20.05;;;16.63;;
17173;SDS011;8702;48.130;-1.696;2022-12-07T00:22:59;20.02;;;16.42;;
17173;SDS011;8702;48.130;-1.696;2022-12-07T00:25:26;19.00;;;16.50;;
17173;SDS011;8702;48.130;-1.696;2022-12-07T00:27:53;19.60;;;15.80;;
17173;SDS011;8702;48.130;-1.696;2022-12-07T00:30:21;21.65;;;16.08;;
17173;SDS011;8702;48.130;-1.696;2022-12-07T00:32:49;18.25;;;15.90;;
17173;SDS011;8702;48.130;-1.696;2022-12-07T00:35:18;18.38;;;15.95;;
17173;SDS011;8702;48.130;-1.696;2022-12-07T00:37:46;18.77;;;16.23;;
17173;SDS011;8702;48.130;-1.696;2022-12-07T00:40:14;19.13;;;15.32;;
17173;SDS011;8702;48.130;-1.696;2022-12-07T00:42:41;18.63;;;15.83;;
17173;SDS011;8702;48.130;-1.696;2022-12-07T00:45:09;19.13;;;15.68;;
17173;SDS011;8702;48.130;-1.696;2022-12-07T00:47:36;18.23;;;15.68;;
17173;SDS011;8702;48.130;-1.696;2022-12-07T00:50:04;18.75;;;15.82;;
17173;SDS011;8702;48.130;-1.696;2022-12-07T00:52:31;18.67;;;15.57;;
17173;SDS011;8702;48.130;-1.696;2022-12-07T00:54:59;17.42;;;15.52;;
17173;SDS011;8702;48.130;-1.696;2022-12-07T00:57:31;18.42;;;16.25;;
17173;SDS011;8702;48.130;-1.696;2022-12-07T00:59:58;19.90;;;16.25;;
17173;SDS011;8702;48.130;-1.696;2022-12-07T01:02:25;19.38;;;16.15;;
17173;SDS011;8702;48.130;-1.696;2022-12-07T01:04:53;18.85;;;16.20;;
17173;SDS011;8702;48.130;-1.696;2022-12-07T01:07:20;20.33;;;16.83;;
17173;SDS011;8702;48.130;-1.696;2022-12-07T01:09:47;19.15;;;16.30;;
17173;SDS011;8702;48.130;-1.696;2022-12-07T01:12:14;18.58;;;16.30;;
17173;SDS011;8702;48.130;-1.696;2022-12-07T01:14:46;18.60;;;15.88;;
17173;SDS011;8702;48.130;-1.696;2022-12-07T01:17:13;19.17;;;16.35;;
17173;SDS011;8702;48.130;-1.696;2022-12-07T01:19:41;19.30;;;16.50;;
17173;SDS011;8702;48.130;-1.696;2022-12-07T01:22:08;18.35;;;15.70;;
17173;SDS011;8702;48.130;-1.696;2022-12-07T01:24:35;18.40;;;15.57;;
17173;SDS011;8702;48.130;-1.696;2022-12-07T01:27:02;19.73;;;16.58;;
17173;SDS011;8702;48.130;-1.696;2022-12-07T01:29:29;19.07;;;16.17;;
17173;SDS011;8702;48.130;-1.696;2022-12-07T01:31:58;19.50;;;16.40;;
17173;SDS011;8702;48.130;-1.696;2022-12-07T01:34:25;19.02;;;16.85;;
17173;SDS011;8702;48.130;-1.696;2022-12-07T01:36:53;19.03;;;16.00;;
17173;SDS011;8702;48.130;-1.696;2022-12-07T01:39:20;18.65;;;15.73;;
17173;SDS011;8702;48.130;-1.696;2022-12-07T01:41:47;18.85;;;16.65;;
17173;SDS011;8702;48.130;-1.696;2022-12-07T01:44:19;19.55;;;16.88;;
17173;SDS011;8702;48.130;-1.696;2022-12-07T01:46:46;19.10;;;16.55;;
17173;SDS011;8702;48.130;-1.696;2022-12-07T01:49:17;19.40;;;16.63;;
17173;SDS011;8702;48.130;-1.696;2022-12-07T01:51:45;19.23;;;17.02;;
17173;SDS011;8702;48.130;-1.696;2022-12-07T01:54:15;20.58;;;16.92;;
17173;SDS011;8702;48.130;-1.696;2022-12-07T01:56:45;19.40;;;16.63;;
17173;SDS011;8702;48.130;-1.696;2022-12-07T01:59:14;19.23;;;16.90;;
17173;SDS011;8702;48.130;-1.696;2022-12-07T02:01:42;18.58;;;16.25;;
17173;SDS011;8702;48.130;-1.696;2022-12-07T02:04:09;20.77;;;17.10;;
17173;SDS011;8702;48.130;-1.696;2022-12-07T02:06:38;20.10;;;16.70;;
17173;SDS011;8702;48.130;-1.696;2022-12-07T02:09:06;20.73;;;16.83;;
17173;SDS011;8702;48.130;-1.696;2022-12-07T02:11:34;20.30;;;16.92;;
17173;SDS011;8702;48.130;-1.696;2022-12-07T02:14:01;19.45;;;16.58;;
17173;SDS011;8702;48.130;-1.696;2022-12-07T02:16:31;18.90;;;16.33;;
17173;SDS011;8702;48.130;-1.696;2022-12-07T02:19:04;20.55;;;17.52;;
17173;SDS011;8702;48.130;-1.696;2022-12-07T02:21:38;19.73;;;17.45;;
17173;SDS011;8702;48.130;-1.696;2022-12-07T02:24:14;19.23;;;17.05;;
17173;SDS011;8702;48.130;-1.696;2022-12-07T02:29:46;20.83;;;17.42;;
17173;SDS011;8702;48.130;-1.696;2022-12-07T02:32:16;21.23;;;17.83;;
17173;SDS011;8702;48.130;-1.696;2022-12-07T02:34:48;21.08;;;17.42;;
17173;SDS011;8702;48.130;-1.696;2022-12-07T02:37:21;21.63;;;17.85;;
17173;SDS011;8702;48.130;-1.696;2022-12-07T02:40:01;20.70;;;17.42;;
17173;SDS011;8702;48.130;-1.696;2022-12-07T02:42:30;22.13;;;18.08;;
17173;SDS011;8702;48.130;-1.696;2022-12-07T02:45:00;22.98;;;18.52;;
17173;SDS011;8702;48.130;-1.696;2022-12-07T02:47:28;19.97;;;17.80;;
17173;SDS011;8702;48.130;-1.696;2022-12-07T02:49:56;20.25;;;17.25;;
17173;SDS011;8702;48.130;-1.696;2022-12-07T02:52:23;22.05;;;17.60;;
17173;SDS011;8702;48.130;-1.696;2022-12-07T02:54:50;20.92;;;18.08;;
17173;SDS011;8702;48.130;-1.696;2022-12-07T02:57:26;21.70;;;17.67;;
17173;SDS011;8702;48.130;-1.696;2022-12-07T03:00:07;21.17;;;17.58;;
17173;SDS011;8702;48.130;-1.696;2022-12-07T03:02:36;21.92;;;18.27;;
17173;SDS011;8702;48.130;-1.696;2022-12-07T03:05:13;22.38;;;18.35;;
17173;SDS011;8702;48.130;-1.696;2022-12-07T03:07:48;20.73;;;17.67;;
17173;SDS011;8702;48.130;-1.696;2022-12-07T03:10:19;23.13;;;18.45;;
17173;SDS011;8702;48.130;-1.696;2022-12-07T03:12:51;22.50;;;18.38;;
17173;SDS011;8702;48.130;-1.696;2022-12-07T03:15:26;20.95;;;17.92;;
17173;SDS011;8702;48.130;-1.696;2022-12-07T03:17:54;20.00;;;17.55;;
17173;SDS011;8702;48.130;-1.696;2022-12-07T03:20:23;21.83;;;17.20;;
17173;SDS011;8702;48.130;-1.696;2022-12-07T03:22:50;21.08;;;18.05;;
17173;SDS011;8702;48.130;-1.696;2022-12-07T03:25:21;20.70;;;17.40;;
17173;SDS011;8702;48.130;-1.696;2022-12-07T03:27:49;21.03;;;17.40;;
17173;SDS011;8702;48.130;-1.696;2022-12-07T03:30:21;20.17;;;17.80;;
17173;SDS011;8702;48.130;-1.696;2022-12-07T03:32:50;20.38;;;16.65;;
17173;SDS011;8702;48.130;-1.696;2022-12-07T03:35:20;22.77;;;18.63;;
17173;SDS011;8702;48.130;-1.696;2022-12-07T03:37:50;21.38;;;17.70;;
17173;SDS011;8702;48.130;-1.696;2022-12-07T03:40:20;21.60;;;18.30;;
17173;SDS011;8702;48.130;-1.696;2022-12-07T03:42:49;20.30;;;17.13;;
17173;SDS011;8702;48.130;-1.696;2022-12-07T03:45:19;21.77;;;18.30;;
17173;SDS011;8702;48.130;-1.696;2022-12-07T03:47:52;19.52;;;17.35;;
17173;SDS011;8702;48.130;-1.696;2022-12-07T03:50:21;19.52;;;17.40;;
17173;SDS011;8702;48.130;-1.696;2022-12-07T03:52:52;20.60;;;17.35;;
17173;SDS011;8702;48.130;-1.696;2022-12-07T03:55:22;21.17;;;18.15;;
17173;SDS011;8702;48.130;-1.696;2022-12-07T03:57:55;22.05;;;17.65;;
17173;SDS011;8702;48.130;-1.696;2022-12-07T04:00:23;21.77;;;17.67;;
17173;SDS011;8702;48.130;-1.696;2022-12-07T04:02:52;20.67;;;17.25;;
17173;SDS011;8702;48.130;-1.696;2022-12-07T04:05:19;21.23;;;17.55;;
17173;SDS011;8702;48.130;-1.696;2022-12-07T04:07:46;19.98;;;16.80;;
17173;SDS011;8702;48.130;-1.696;2022-12-07T04:10:14;20.57;;;17.60;;
17173;SDS011;8702;48.130;-1.696;2022-12-07T04:12:41;19.60;;;17.48;;
17173;SDS011;8702;48.130;-1.696;2022-12-07T04:15:08;21.15;;;17.33;;
17173;SDS011;8702;48.130;-1.696;2022-12-07T04:17:36;19.40;;;17.13;;
17173;SDS011;8702;48.130;-1.696;2022-12-07T04:20:05;20.73;;;17.25;;
17173;SDS011;8702;48.130;-1.696;2022-12-07T04:22:33;21.83;;;17.33;;
17173;SDS011;8702;48.130;-1.696;2022-12-07T04:25:00;20.75;;;17.65;;
17173;SDS011;8702;48.130;-1.696;2022-12-07T04:27:29;21.25;;;17.50;;
17173;SDS011;8702;48.130;-1.696;2022-12-07T04:29:57;19.50;;;16.98;;
17173;SDS011;8702;48.130;-1.696;2022-12-07T04:32:24;20.13;;;16.90;;
17173;SDS011;8702;48.130;-1.696;2022-12-07T04:34:51;20.95;;;17.38;;
17173;SDS011;8702;48.130;-1.696;2022-12-07T04:37:20;20.52;;;17.75;;
17173;SDS011;8702;48.130;-1.696;2022-12-07T04:39:47;20.83;;;17.52;;
17173;SDS011;8702;48.130;-1.696;2022-12-07T04:42:14;19.42;;;17.02;;
17173;SDS011;8702;48.130;-1.696;2022-12-07T04:44:41;19.65;;;17.00;;
17173;SDS011;8702;48.130;-1.696;2022-12-07T04:47:09;18.92;;;16.45;;
17173;SDS011;8702;48.130;-1.696;2022-12-07T04:49:36;19.23;;;16.73;;
17173;SDS011;8702;48.130;-1.696;2022-12-07T04:52:04;21.08;;;17.48;;
17173;SDS011;8702;48.130;-1.696;2022-12-07T04:54:33;19.40;;;16.65;;
17173;SDS011;8702;48.130;-1.696;2022-12-07T04:57:00;18.10;;;16.13;;
17173;SDS011;8702;48.130;-1.696;2022-12-07T04:59:27;19.98;;;16.85;;
17173;SDS011;8702;48.130;-1.696;2022-12-07T05:01:55;19.85;;;17.00;;
17173;SDS011;8702;48.130;-1.696;2022-12-07T05:04:22;21.33;;;16.73;;
17173;SDS011;8702;48.130;-1.696;2022-12-07T05:06:49;21.15;;;16.67;;
17173;SDS011;8702;48.130;-1.696;2022-12-07T05:09:17;19.95;;;16.33;;
17173;SDS011;8702;48.130;-1.696;2022-12-07T05:11:45;19.08;;;15.95;;
17173;SDS011;8702;48.130;-1.696;2022-12-07T05:14:14;19.23;;;16.25;;
17173;SDS011;8702;48.130;-1.696;2022-12-07T05:16:41;18.60;;;15.77;;
17173;SDS011;8702;48.130;-1.696;2022-12-07T05:19:09;17.58;;;15.52;;
17173;SDS011;8702;48.130;-1.696;2022-12-07T05:21:37;17.30;;;15.23;;
17173;SDS011;8702;48.130;-1.696;2022-12-07T05:24:05;17.75;;;15.75;;
17173;SDS011;8702;48.130;-1.696;2022-12-07T05:26:32;17.05;;;14.77;;
17173;SDS011;8702;48.130;-1.696;2022-12-07T05:29:01;19.60;;;15.07;;
17173;SDS011;8702;48.130;-1.696;2022-12-07T05:31:28;17.00;;;15.20;;
17173;SDS011;8702;48.130;-1.696;2022-12-07T05:33:56;16.33;;;14.48;;
17173;SDS011;8702;48.130;-1.696;2022-12-07T05:36:23;15.95;;;14.18;;
17173;SDS011;8702;48.130;-1.696;2022-12-07T05:38:53;15.43;;;13.73;;
17173;SDS011;8702;48.130;-1.696;2022-12-07T05:41:20;17.80;;;14.65;;
17173;SDS011;8702;48.130;-1.696;2022-12-07T05:44:06;15.55;;;13.80;;
17173;SDS011;8702;48.130;-1.696;2022-12-07T05:46:34;15.38;;;13.63;;
17173;SDS011;8702;48.130;-1.696;2022-12-07T05:49:01;17.13;;;15.32;;
17173;SDS011;8702;48.130;-1.696;2022-12-07T05:51:29;17.42;;;14.68;;
17173;SDS011;8702;48.130;-1.696;2022-12-07T05:53:56;18.20;;;15.20;;
17173;SDS011;8702;48.130;-1.696;2022-12-07T05:56:23;18.00;;;15.23;;
17173;SDS011;8702;48.130;-1.696;2022-12-07T05:58:51;18.65;;;15.38;;
17173;SDS011;8702;48.130;-1.696;2022-12-07T06:01:38;17.63;;;15.60;;
17173;SDS011;8702;48.130;-1.696;2022-12-07T06:04:05;16.65;;;14.82;;
17173;SDS011;8702;48.130;-1.696;2022-12-07T06:06:32;16.67;;;14.80;;
17173;SDS011;8702;48.130;-1.696;2022-12-07T06:09:00;15.80;;;14.10;;
17173;SDS011;8702;48.130;-1.696;2022-12-07T06:11:27;17.40;;;14.77;;
17173;SDS011;8702;48.130;-1.696;2022-12-07T06:14:12;17.00;;;14.70;;
17173;SDS011;8702;48.130;-1.696;2022-12-07T06:16:41;16.08;;;14.38;;
17173;SDS011;8702;48.130;-1.696;2022-12-07T06:19:08;15.80;;;14.10;;
17173;SDS011;8702;48.130;-1.696;2022-12-07T06:21:35;15.05;;;13.52;;
17173;SDS011;8702;48.130;-1.696;2022-12-07T06:24:03;15.68;;;14.05;;
17173;SDS011;8702;48.130;-1.696;2022-12-07T06:26:30;16.08;;;14.48;;
17173;SDS011;8702;48.130;-1.696;2022-12-07T06:28:57;16.08;;;14.38;;
17173;SDS011;8702;48.130;-1.696;2022-12-07T06:31:24;15.85;;;14.25;;
17173;SDS011;8702;48.130;-1.696;2022-12-07T06:33:57;15.82;;;14.23;;
17173;SDS011;8702;48.130;-1.696;2022-12-07T06:36:25;16.88;;;14.82;;
17173;SDS011;8702;48.130;-1.696;2022-12-07T06:38:52;16.25;;;14.65;;
17173;SDS011;8702;48.130;-1.696;2022-12-07T06:41:19;16.17;;;14.57;;
17173;SDS011;8702;48.130;-1.696;2022-12-07T06:43:46;16.73;;;15.00;;
17173;SDS011;8702;48.130;-1.696;2022-12-07T06:46:14;16.45;;;14.73;;
17173;SDS011;8702;48.130;-1.696;2022-12-07T06:48:42;16.42;;;14.73;;
17173;SDS011;8702;48.130;-1.696;2022-12-07T06:51:11;15.90;;;14.23;;
17173;SDS011;8702;48.130;-1.696;2022-12-07T06:53:38;17.70;;;15.40;;
17173;SDS011;8702;48.130;-1.696;2022-12-07T06:56:06;16.88;;;15.07;;
17173;SDS011;8702;48.130;-1.696;2022-12-07T06:58:33;16.38;;;14.77;;
17173;SDS011;8702;48.130;-1.696;2022-12-07T07:01:00;16.52;;;14.82;;
17173;SDS011;8702;48.130;-1.696;2022-12-07T07:03:28;16.73;;;15.10;;
17173;SDS011;8702;48.130;-1.696;2022-12-07T07:05:55;17.58;;;15.68;;
17173;SDS011;8702;48.130;-1.696;2022-12-07T07:08:23;16.92;;;14.50;;
17173;SDS011;8702;48.130;-1.696;2022-12-07T07:10:51;15.55;;;13.95;;
17173;SDS011;8702;48.130;-1.696;2022-12-07T07:13:18;16.35;;;14.68;;
17173;SDS011;8702;48.130;-1.696;2022-12-07T07:15:45;16.02;;;14.43;;
17173;SDS011;8702;48.130;-1.696;2022-12-07T07:18:12;16.97;;;15.20;;
17173;SDS011;8702;48.130;-1.696;2022-12-07T07:20:42;19.73;;;14.50;;
17173;SDS011;8702;48.130;-1.696;2022-12-07T07:23:09;22.35;;;15.35;;
17173;SDS011;8702;48.130;-1.696;2022-12-07T07:25:38;22.30;;;14.52;;
17173;SDS011;8702;48.130;-1.696;2022-12-07T07:28:05;24.35;;;15.05;;
17173;SDS011;8702;48.130;-1.696;2022-12-07T07:30:33;13.93;;;12.43;;
17173;SDS011;8702;48.130;-1.696;2022-12-07T07:33:00;13.13;;;11.73;;
17173;SDS011;8702;48.130;-1.696;2022-12-07T07:35:29;13.70;;;12.35;;
17173;SDS011;8702;48.130;-1.696;2022-12-07T07:37:56;14.50;;;12.90;;
17173;SDS011;8702;48.130;-1.696;2022-12-07T07:40:24;13.95;;;12.45;;
17173;SDS011;8702;48.130;-1.696;2022-12-07T07:42:53;13.02;;;11.77;;
17173;SDS011;8702;48.130;-1.696;2022-12-07T07:45:21;13.70;;;12.25;;
17173;SDS011;8702;48.130;-1.696;2022-12-07T07:47:48;14.13;;;11.70;;
17173;SDS011;8702;48.130;-1.696;2022-12-07T07:50:18;13.60;;;11.68;;
17173;SDS011;8702;48.130;-1.696;2022-12-07T07:52:46;13.23;;;11.60;;
17173;SDS011;8702;48.130;-1.696;2022-12-07T07:55:14;14.82;;;11.48;;
17173;SDS011;8702;48.130;-1.696;2022-12-07T07:57:41;16.80;;;11.25;;
17173;SDS011;8702;48.130;-1.696;2022-12-07T08:00:11;14.05;;;11.07;;
17173;SDS011;8702;48.130;-1.696;2022-12-07T08:02:39;12.33;;;10.03;;
17173;SDS011;8702;48.130;-1.696;2022-12-07T08:05:08;12.23;;;10.50;;
17173;SDS011;8702;48.130;-1.696;2022-12-07T08:07:35;11.93;;;10.45;;
17173;SDS011;8702;48.130;-1.696;2022-12-07T08:10:03;12.60;;;9.90;;
17173;SDS011;8702;48.130;-1.696;2022-12-07T08:12:30;13.20;;;10.63;;
17173;SDS011;8702;48.130;-1.696;2022-12-07T08:14:57;10.77;;;9.77;;
17173;SDS011;8702;48.130;-1.696;2022-12-07T08:17:26;12.03;;;10.90;;
17173;SDS011;8702;48.130;-1.696;2022-12-07T08:19:53;10.57;;;9.53;;
17173;SDS011;8702;48.130;-1.696;2022-12-07T08:22:21;11.05;;;9.90;;
17173;SDS011;8702;48.130;-1.696;2022-12-07T08:24:49;11.73;;;10.53;;
17173;SDS011;8702;48.130;-1.696;2022-12-07T08:27:19;11.93;;;10.73;;
17173;SDS011;8702;48.130;-1.696;2022-12-07T08:29:48;12.52;;;11.25;;
17173;SDS011;8702;48.130;-1.696;2022-12-07T08:32:16;11.88;;;10.68;;
17173;SDS011;8702;48.130;-1.696;2022-12-07T08:34:44;11.80;;;10.60;;
17173;SDS011;8702;48.130;-1.696;2022-12-07T08:37:13;12.55;;;10.85;;
17173;SDS011;8702;48.130;-1.696;2022-12-07T08:39:40;17.00;;;11.98;;
17173;SDS011;8702;48.130;-1.696;2022-12-07T08:42:07;27.58;;;11.43;;
17173;SDS011;8702;48.130;-1.696;2022-12-07T08:44:35;23.52;;;11.70;;
17173;SDS011;8702;48.130;-1.696;2022-12-07T08:47:02;25.63;;;10.48;;
17173;SDS011;8702;48.130;-1.696;2022-12-07T08:49:31;18.92;;;10.38;;
17173;SDS011;8702;48.130;-1.696;2022-12-07T08:52:01;10.30;;;8.80;;
17173;SDS011;8702;48.130;-1.696;2022-12-07T08:54:31;11.00;;;9.15;;
17173;SDS011;8702;48.130;-1.696;2022-12-07T08:56:59;12.38;;;8.80;;
17173;SDS011;8702;48.130;-1.696;2022-12-07T08:59:27;12.52;;;8.48;;
17173;SDS011;8702;48.130;-1.696;2022-12-07T09:01:55;10.40;;;7.95;;
17173;SDS011;8702;48.130;-1.696;2022-12-07T09:04:22;11.83;;;8.33;;
17173;SDS011;8702;48.130;-1.696;2022-12-07T09:06:49;14.57;;;8.85;;
17173;SDS011;8702;48.130;-1.696;2022-12-07T09:09:18;11.18;;;8.35;;
17173;SDS011;8702;48.130;-1.696;2022-12-07T09:11:45;16.52;;;8.98;;
17173;SDS011;8702;48.130;-1.696;2022-12-07T09:14:13;12.98;;;8.57;;
17173;SDS011;8702;48.130;-1.696;2022-12-07T09:16:40;15.77;;;8.85;;
17173;SDS011;8702;48.130;-1.696;2022-12-07T09:19:08;11.18;;;9.05;;
17173;SDS011;8702;48.130;-1.696;2022-12-07T09:21:35;9.98;;;8.98;;
17173;SDS011;8702;48.130;-1.696;2022-12-07T09:24:02;9.80;;;8.45;;
17173;SDS011;8702;48.130;-1.696;2022-12-07T09:26:31;11.18;;;8.48;;
17173;SDS011;8702;48.130;-1.696;2022-12-07T09:29:00;10.93;;;8.50;;
17173;SDS011;8702;48.130;-1.696;2022-12-07T09:31:27;10.65;;;8.20;;
17173;SDS011;8702;48.130;-1.696;2022-12-07T09:33:55;13.63;;;7.90;;
17173;SDS011;8702;48.130;-1.696;2022-12-07T09:36:22;10.13;;;7.95;;
17173;SDS011;8702;48.130;-1.696;2022-12-07T09:38:50;9.13;;;8.17;;
17173;SDS011;8702;48.130;-1.696;2022-12-07T09:41:17;12.20;;;7.88;;
17173;SDS011;8702;48.130;-1.696;2022-12-07T09:43:46;10.90;;;8.57;;
17173;SDS011;8702;48.130;-1.696;2022-12-07T09:46:14;10.68;;;9.20;;
17173;SDS011;8702;48.130;-1.696;2022-12-07T09:48:43;11.30;;;9.82;;
17173;SDS011;8702;48.130;-1.696;2022-12-07T09:51:13;13.07;;;9.93;;
17173;SDS011;8702;48.130;-1.696;2022-12-07T09:53:41;10.80;;;9.65;;
17173;SDS011;8702;48.130;-1.696;2022-12-07T09:56:10;12.95;;;10.30;;
17173;SDS011;8702;48.130;-1.696;2022-12-07T09:58:38;11.52;;;10.32;;
17173;SDS011;8702;48.130;-1.696;2022-12-07T10:01:11;14.52;;;10.75;;
17173;SDS011;8702;48.130;-1.696;2022-12-07T10:03:40;17.75;;;11.50;;
17173;SDS011;8702;48.130;-1.696;2022-12-07T10:06:10;16.23;;;12.38;;
17173;SDS011;8702;48.130;-1.696;2022-12-07T10:08:38;17.60;;;14.30;;
17173;SDS011;8702;48.130;-1.696;2022-12-07T10:11:08;27.20;;;16.27;;
17173;SDS011;8702;48.130;-1.696;2022-12-07T10:13:37;27.33;;;19.90;;
17173;SDS011;8702;48.130;-1.696;2022-12-07T10:16:05;28.75;;;21.65;;
17173;SDS011;8702;48.130;-1.696;2022-12-07T10:18:35;29.30;;;21.20;;
17173;SDS011;8702;48.130;-1.696;2022-12-07T10:21:12;34.00;;;24.90;;
17173;SDS011;8702;48.130;-1.696;2022-12-07T10:23:42;31.42;;;25.20;;
17173;SDS011;8702;48.130;-1.696;2022-12-07T10:29:13;29.27;;;22.13;;
17173;SDS011;8702;48.130;-1.696;2022-12-07T10:31:41;34.80;;;22.67;;
17173;SDS011;8702;48.130;-1.696;2022-12-07T10:34:14;33.95;;;23.23;;
17173;SDS011;8702;48.130;-1.696;2022-12-07T10:36:49;34.30;;;27.90;;
17173;SDS011;8702;48.130;-1.696;2022-12-07T10:39:17;34.33;;;27.13;;
17173;SDS011;8702;48.130;-1.696;2022-12-07T10:41:54;28.50;;;24.63;;
17173;SDS011;8702;48.130;-1.696;2022-12-07T10:44:22;28.75;;;24.08;;
17173;SDS011;8702;48.130;-1.696;2022-12-07T10:46:55;32.15;;;25.75;;
17173;SDS011;8702;48.130;-1.696;2022-12-07T10:49:36;32.35;;;24.63;;
17173;SDS011;8702;48.130;-1.696;2022-12-07T10:52:08;23.15;;;18.45;;
17173;SDS011;8702;48.130;-1.696;2022-12-07T10:54:40;22.30;;;17.67;;
17173;SDS011;8702;48.130;-1.696;2022-12-07T10:57:16;18.90;;;14.82;;
17173;SDS011;8702;48.130;-1.696;2022-12-07T10:59:52;17.13;;;12.55;;
17173;SDS011;8702;48.130;-1.696;2022-12-07T11:02:25;14.52;;;11.85;;
17173;SDS011;8702;48.130;-1.696;2022-12-07T11:05:01;12.73;;;11.30;;
17173;SDS011;8702;48.130;-1.696;2022-12-07T11:07:35;12.67;;;10.97;;
17173;SDS011;8702;48.130;-1.696;2022-12-07T11:10:07;14.48;;;10.77;;
17173;SDS011;8702;48.130;-1.696;2022-12-07T11:15:28;15.75;;;11.18;;
17173;SDS011;8702;48.130;-1.696;2022-12-07T11:18:03;17.40;;;11.13;;
17173;SDS011;8702;48.130;-1.696;2022-12-07T11:20:39;14.50;;;11.75;;
17173;SDS011;8702;48.130;-1.696;2022-12-07T11:23:13;16.10;;;12.50;;
17173;SDS011;8702;48.130;-1.696;2022-12-07T11:25:45;15.95;;;13.07;;
17173;SDS011;8702;48.130;-1.696;2022-12-07T11:28:18;19.92;;;13.77;;
17173;SDS011;8702;48.130;-1.696;2022-12-07T11:30:48;24.63;;;17.10;;
17173;SDS011;8702;48.130;-1.696;2022-12-07T11:33:20;19.80;;;14.25;;
17173;SDS011;8702;48.130;-1.696;2022-12-07T11:35:53;15.57;;;12.77;;
17173;SDS011;8702;48.130;-1.696;2022-12-07T11:38:26;18.10;;;13.23;;
17173;SDS011;8702;48.130;-1.696;2022-12-07T11:40:55;15.57;;;12.88;;
17173;SDS011;8702;48.130;-1.696;2022-12-07T11:43:37;15.90;;;12.90;;
17173;SDS011;8702;48.130;-1.696;2022-12-07T11:46:11;15.55;;;12.48;;
17173;SDS011;8702;48.130;-1.696;2022-12-07T11:48:41;17.40;;;13.48;;
17173;SDS011;8702;48.130;-1.696;2022-12-07T11:51:10;14.70;;;13.10;;
17173;SDS011;8702;48.130;-1.696;2022-12-07T11:53:39;16.30;;;12.88;;
17173;SDS011;8702;48.130;-1.696;2022-12-07T11:56:08;14.18;;;11.73;;
17173;SDS011;8702;48.130;-1.696;2022-12-07T11:58:42;15.30;;;12.25;;
17173;SDS011;8702;48.130;-1.696;2022-12-07T12:01:19;15.82;;;12.57;;
17173;SDS011;8702;48.130;-1.696;2022-12-07T12:03:52;15.50;;;11.90;;
17173;SDS011;8702;48.130;-1.696;2022-12-07T12:06:22;14.18;;;12.02;;
17173;SDS011;8702;48.130;-1.696;2022-12-07T12:08:50;14.73;;;11.63;;
17173;SDS011;8702;48.130;-1.696;2022-12-07T12:11:25;14.68;;;11.73;;
17173;SDS011;8702;48.130;-1.696;2022-12-07T12:14:05;15.73;;;12.80;;
17173;SDS011;8702;48.130;-1.696;2022-12-07T12:16:44;15.77;;;13.15;;
17173;SDS011;8702;48.130;-1.696;2022-12-07T12:19:17;15.20;;;12.52;;
17173;SDS011;8702;48.130;-1.696;2022-12-07T12:21:48;18.42;;;13.10;;
17173;SDS011;8702;48.130;-1.696;2022-12-07T12:24:21;14.30;;;11.68;;
17173;SDS011;8702;48.130;-1.696;2022-12-07T12:26:50;18.33;;;12.32;;
17173;SDS011;8702;48.130;-1.696;2022-12-07T12:29:20;17.48;;;12.40;;
17173;SDS011;8702;48.130;-1.696;2022-12-07T12:32:03;14.52;;;12.15;;
17173;SDS011;8702;48.130;-1.696;2022-12-07T12:34:33;16.77;;;12.98;;
17173;SDS011;8702;48.130;-1.696;2022-12-07T12:37:02;17.85;;;13.30;;
17173;SDS011;8702;48.130;-1.696;2022-12-07T12:39:29;14.93;;;12.50;;
17173;SDS011;8702;48.130;-1.696;2022-12-07T12:41:57;15.68;;;12.88;;
17173;SDS011;8702;48.130;-1.696;2022-12-07T12:47:42;16.30;;;13.83;;
17173;SDS011;8702;48.130;-1.696;2022-12-07T12:50:15;17.23;;;14.30;;
17173;SDS011;8702;48.130;-1.696;2022-12-07T12:52:54;15.48;;;13.65;;
17173;SDS011;8702;48.130;-1.696;2022-12-07T13:03:52;16.47;;;13.27;;
17173;SDS011;8702;48.130;-1.696;2022-12-07T13:06:29;17.17;;;13.20;;
17173;SDS011;8702;48.130;-1.696;2022-12-07T13:09:01;19.58;;;13.77;;
17173;SDS011;8702;48.130;-1.696;2022-12-07T13:11:29;16.77;;;12.80;;
17173;SDS011;8702;48.130;-1.696;2022-12-07T13:16:40;17.60;;;13.52;;
17173;SDS011;8702;48.130;-1.696;2022-12-07T13:21:56;13.50;;;12.10;;
17173;SDS011;8702;48.130;-1.696;2022-12-07T13:24:24;14.65;;;11.90;;
17173;SDS011;8702;48.130;-1.696;2022-12-07T13:26:52;14.45;;;11.77;;
17173;SDS011;8702;48.130;-1.696;2022-12-07T13:29:22;15.63;;;12.88;;
17173;SDS011;8702;48.130;-1.696;2022-12-07T13:31:50;14.87;;;12.30;;
17173;SDS011;8702;48.130;-1.696;2022-12-07T13:34:28;14.70;;;12.80;;
17173;SDS011;8702;48.130;-1.696;2022-12-07T13:36:56;16.58;;;12.40;;
17173;SDS011;8702;48.130;-1.696;2022-12-07T13:39:25;14.43;;;11.98;;
17173;SDS011;8702;48.130;-1.696;2022-12-07T13:41:53;13.02;;;11.63;;
17173;SDS011;8702;48.130;-1.696;2022-12-07T13:44:22;15.10;;;12.67;;
17173;SDS011;8702;48.130;-1.696;2022-12-07T13:46:52;15.60;;;11.70;;
17173;SDS011;8702;48.130;-1.696;2022-12-07T13:49:21;14.10;;;11.85;;
17173;SDS011;8702;48.130;-1.696;2022-12-07T13:51:49;13.35;;;11.52;;
17173;SDS011;8702;48.130;-1.696;2022-12-07T13:54:17;14.23;;;11.40;;
17173;SDS011;8702;48.130;-1.696;2022-12-07T13:56:48;15.13;;;11.93;;
17173;SDS011;8702;48.130;-1.696;2022-12-07T13:59:17;14.73;;;11.87;;
17173;SDS011;8702;48.130;-1.696;2022-12-07T14:01:45;13.35;;;11.88;;
17173;SDS011;8702;48.130;-1.696;2022-12-07T14:06:59;14.07;;;12.10;;
17173;SDS011;8702;48.130;-1.696;2022-12-07T14:09:27;13.82;;;12.13;;
17173;SDS011;8702;48.130;-1.696;2022-12-07T14:11:56;18.73;;;12.48;;
17173;SDS011;8702;48.130;-1.696;2022-12-07T14:14:25;17.60;;;11.73;;
17173;SDS011;8702;48.130;-1.696;2022-12-07T14:16:57;16.55;;;11.90;;
17173;SDS011;8702;48.130;-1.696;2022-12-07T14:19:46;15.37;;;12.43;;
17173;SDS011;8702;48.130;-1.696;2022-12-07T14:22:22;14.60;;;12.75;;
17173;SDS011;8702;48.130;-1.696;2022-12-07T14:24:50;15.30;;;12.80;;
17173;SDS011;8702;48.130;-1.696;2022-12-07T14:27:20;15.05;;;12.45;;
17173;SDS011;8702;48.130;-1.696;2022-12-07T14:29:50;16.13;;;13.65;;
17173;SDS011;8702;48.130;-1.696;2022-12-07T14:32:19;19.30;;;13.32;;
17173;SDS011;8702;48.130;-1.696;2022-12-07T14:34:54;19.45;;;13.40;;
17173;SDS011;8702;48.130;-1.696;2022-12-07T14:37:22;16.50;;;13.43;;
17173;SDS011;8702;48.130;-1.696;2022-12-07T14:39:49;16.80;;;13.23;;
17173;SDS011;8702;48.130;-1.696;2022-12-07T14:42:16;16.63;;;13.85;;
17173;SDS011;8702;48.130;-1.696;2022-12-07T14:44:45;17.95;;;13.80;;
17173;SDS011;8702;48.130;-1.696;2022-12-07T14:47:12;17.90;;;13.57;;
17173;SDS011;8702;48.130;-1.696;2022-12-07T14:49:39;17.50;;;15.43;;
17173;SDS011;8702;48.130;-1.696;2022-12-07T14:52:09;17.17;;;15.33;;
17173;SDS011;8702;48.130;-1.696;2022-12-07T14:54:39;17.75;;;14.98;;
17173;SDS011;8702;48.130;-1.696;2022-12-07T14:57:08;18.67;;;14.93;;
17173;SDS011;8702;48.130;-1.696;2022-12-07T14:59:36;19.95;;;15.07;;
17173;SDS011;8702;48.130;-1.696;2022-12-07T15:02:04;17.45;;;14.55;;
17173;SDS011;8702;48.130;-1.696;2022-12-07T15:04:32;17.75;;;15.25;;